Station Historical Data
Daily Summary for April 16, 2017 Units:  Both    English   Metric
« Previous Day
Next Day »
Daily Weekly Monthly Yearly Custom
  High: Low: Average:
Temperature: 71.9 °F /  22.2 °C 47.4 °F /  8.6 °C 62.7 °F /  17.1 °C
Dew Point: 55.7 °F /  13.2 °C 43.2 °F /  6.2 °C 50.4 °F /  10.2 °C
Humidity: 87% 48% 65%
Wind Speed: 24.0mph /  38.6km/h - 8.1mph /  13km/h
Wind Gust: 38.0mph /  61.2km/h - -
Wind- - WSW
Pressure: 29.92 in /  1013.1 hPa 29.76 in /  1007.7 hPa -
Precipitation: 0.00 in /  0 mm    
Historical Graphs
 
 
Tabular Data for April 16, 2017
Time Temperature Dew Point Pressure Wind Wind Speed Wind Gust Humidity Rainfall Rate (Hourly)
00:04 66.7 °F /  19.3 °C 53.7 °F /  12.1 °C 29.90in /  1012.4hPa WSW 4.0mph /  6.4km/h 7.0mph /  11.3km/h 63% 0.00in /  0mm
00:09 66.7 °F /  19.3 °C 53.7 °F /  12.1 °C 29.90in /  1012.4hPa WSW 2.0mph /  3.2km/h 7.0mph /  11.3km/h 63% 0.00in /  0mm
00:14 66.6 °F /  19.2 °C 53.6 °F /  12 °C 29.90in /  1012.4hPa WSW 5.0mph /  8km/h 9.0mph /  14.5km/h 63% 0.00in /  0mm
00:19 66.2 °F /  19 °C 53.2 °F /  11.8 °C 29.90in /  1012.4hPa WSW 1.0mph /  1.6km/h 8.0mph /  12.9km/h 63% 0.00in /  0mm
00:24 65.8 °F /  18.8 °C 52.4 °F /  11.3 °C 29.89in /  1012.1hPa SW 4.0mph /  6.4km/h 5.0mph /  8km/h 62% 0.00in /  0mm
00:29 65.4 °F /  18.6 °C 52.0 °F /  11.1 °C 29.90in /  1012.4hPa WSW 4.0mph /  6.4km/h 4.0mph /  6.4km/h 62% 0.00in /  0mm
00:34 65.0 °F /  18.3 °C 52.1 °F /  11.2 °C 29.89in /  1012.1hPa WSW 3.0mph /  4.8km/h 5.0mph /  8km/h 63% 0.00in /  0mm
00:39 64.3 °F /  17.9 °C 51.4 °F /  10.8 °C 29.89in /  1012.1hPa WSW 2.0mph /  3.2km/h 5.0mph /  8km/h 63% 0.00in /  0mm
00:44 63.9 °F /  17.7 °C 51.5 °F /  10.8 °C 29.89in /  1012.1hPa SW 3.0mph /  4.8km/h 6.0mph /  9.7km/h 64% 0.00in /  0mm
00:49 63.4 °F /  17.4 °C 51.4 °F /  10.8 °C 29.89in /  1012.1hPa SW 1.0mph /  1.6km/h 4.0mph /  6.4km/h 65% 0.00in /  0mm
00:54 62.9 °F /  17.2 °C 51.0 °F /  10.6 °C 29.89in /  1012.1hPa SW 5.0mph /  8km/h 6.0mph /  9.7km/h 65% 0.00in /  0mm
00:59 62.4 °F /  16.9 °C 50.9 °F /  10.5 °C 29.89in /  1012.1hPa WSW 3.0mph /  4.8km/h 6.0mph /  9.7km/h 66% 0.00in /  0mm
01:04 62.1 °F /  16.7 °C 51.0 °F /  10.6 °C 29.89in /  1012.1hPa WSW 3.0mph /  4.8km/h 6.0mph /  9.7km/h 67% 0.00in /  0mm
01:09 61.7 °F /  16.5 °C 50.6 °F /  10.3 °C 29.89in /  1012.1hPa WSW 2.0mph /  3.2km/h 5.0mph /  8km/h 67% 0.00in /  0mm
01:14 61.4 °F /  16.3 °C 50.7 °F /  10.4 °C 29.89in /  1012.1hPa WSW 2.0mph /  3.2km/h 5.0mph /  8km/h 68% 0.00in /  0mm
01:19 61.0 °F /  16.1 °C 50.4 °F /  10.2 °C 29.89in /  1012.1hPa WSW 2.0mph /  3.2km/h 5.0mph /  8km/h 68% 0.00in /  0mm
01:24 60.8 °F /  16 °C 50.6 °F /  10.3 °C 29.89in /  1012.1hPa SW 2.0mph /  3.2km/h 5.0mph /  8km/h 69% 0.00in /  0mm
01:29 60.6 °F /  15.9 °C 50.8 °F /  10.4 °C 29.89in /  1012.1hPa WSW 3.0mph /  4.8km/h 7.0mph /  11.3km/h 70% 0.00in /  0mm
01:34 60.5 °F /  15.8 °C 50.7 °F /  10.4 °C 29.89in /  1012.1hPa SW 3.0mph /  4.8km/h 7.0mph /  11.3km/h 70% 0.00in /  0mm
01:39 60.6 °F /  15.9 °C 51.1 °F /  10.6 °C 29.88in /  1011.7hPa WSW 3.0mph /  4.8km/h 6.0mph /  9.7km/h 71% 0.00in /  0mm
01:44 60.9 °F /  16.1 °C 51.4 °F /  10.8 °C 29.88in /  1011.7hPa SW 7.0mph /  11.3km/h 8.0mph /  12.9km/h 71% 0.00in /  0mm
01:49 61.5 °F /  16.4 °C 52.0 °F /  11.1 °C 29.88in /  1011.7hPa SW 6.0mph /  9.7km/h 14.0mph /  22.5km/h 71% 0.00in /  0mm
01:54 62.3 °F /  16.8 °C 52.0 °F /  11.1 °C 29.88in /  1011.7hPa WSW 13.0mph /  20.9km/h 13.0mph /  20.9km/h 69% 0.00in /  0mm
01:59 63.0 °F /  17.2 °C 52.3 °F /  11.3 °C 29.88in /  1011.7hPa WSW 3.0mph /  4.8km/h 13.0mph /  20.9km/h 68% 0.00in /  0mm
02:04 63.3 °F /  17.4 °C 52.2 °F /  11.2 °C 29.88in /  1011.7hPa WSW 5.0mph /  8km/h 13.0mph /  20.9km/h 67% 0.00in /  0mm
02:09 63.4 °F /  17.4 °C 51.4 °F /  10.8 °C 29.88in /  1011.7hPa WSW 5.0mph /  8km/h 8.0mph /  12.9km/h 65% 0.00in /  0mm
02:14 63.1 °F /  17.3 °C 51.1 °F /  10.6 °C 29.87in /  1011.4hPa WSW 5.0mph /  8km/h 10.0mph /  16.1km/h 65% 0.00in /  0mm
02:19 62.9 °F /  17.2 °C 51.0 °F /  10.6 °C 29.87in /  1011.4hPa WSW 6.0mph /  9.7km/h 10.0mph /  16.1km/h 65% 0.00in /  0mm
02:24 62.6 °F /  17 °C 51.1 °F /  10.6 °C 29.87in /  1011.4hPa SW 5.0mph /  8km/h 13.0mph /  20.9km/h 66% 0.00in /  0mm
02:29 62.3 °F /  16.8 °C 50.8 °F /  10.4 °C 29.87in /  1011.4hPa WSW 7.0mph /  11.3km/h 8.0mph /  12.9km/h 66% 0.00in /  0mm
02:34 62.1 °F /  16.7 °C 50.6 °F /  10.3 °C 29.87in /  1011.4hPa WSW 5.0mph /  8km/h 11.0mph /  17.7km/h 66% 0.00in /  0mm
02:39 61.8 °F /  16.6 °C 50.7 °F /  10.4 °C 29.87in /  1011.4hPa SW 6.0mph /  9.7km/h 11.0mph /  17.7km/h 67% 0.00in /  0mm
02:44 61.6 °F /  16.4 °C 50.5 °F /  10.3 °C 29.88in /  1011.7hPa WSW 5.0mph /  8km/h 11.0mph /  17.7km/h 67% 0.00in /  0mm
02:49 61.6 °F /  16.4 °C 50.5 °F /  10.3 °C 29.87in /  1011.4hPa SSW 12.0mph /  19.3km/h 13.0mph /  20.9km/h 67% 0.00in /  0mm
02:54 61.5 °F /  16.4 °C 50.4 °F /  10.2 °C 29.87in /  1011.4hPa SW 7.0mph /  11.3km/h 13.0mph /  20.9km/h 67% 0.00in /  0mm
02:59 61.5 °F /  16.4 °C 50.4 °F /  10.2 °C 29.87in /  1011.4hPa South 6.0mph /  9.7km/h 14.0mph /  22.5km/h 67% 0.00in /  0mm
03:04 61.5 °F /  16.4 °C 50.4 °F /  10.2 °C 29.86in /  1011.1hPa WSW 9.0mph /  14.5km/h 14.0mph /  22.5km/h 67% 0.00in /  0mm
03:09 61.5 °F /  16.4 °C 50.4 °F /  10.2 °C 29.86in /  1011.1hPa SW 8.0mph /  12.9km/h 15.0mph /  24.1km/h 67% 0.00in /  0mm
03:14 61.7 °F /  16.5 °C 50.2 °F /  10.1 °C 29.86in /  1011.1hPa WSW 8.0mph /  12.9km/h 15.0mph /  24.1km/h 66% 0.00in /  0mm
03:19 61.6 °F /  16.4 °C 50.1 °F /  10.1 °C 29.86in /  1011.1hPa SW 7.0mph /  11.3km/h 11.0mph /  17.7km/h 66% 0.00in /  0mm
03:24 61.8 °F /  16.6 °C 50.3 °F /  10.2 °C 29.86in /  1011.1hPa WSW 7.0mph /  11.3km/h 14.0mph /  22.5km/h 66% 0.00in /  0mm
03:29 61.9 °F /  16.6 °C 50.4 °F /  10.2 °C 29.87in /  1011.4hPa WSW 9.0mph /  14.5km/h 14.0mph /  22.5km/h 66% 0.00in /  0mm
03:34 62.2 °F /  16.8 °C 50.7 °F /  10.4 °C 29.86in /  1011.1hPa SW 7.0mph /  11.3km/h 16.0mph /  25.7km/h 66% 0.00in /  0mm
03:39 62.5 °F /  16.9 °C 50.6 °F /  10.3 °C 29.86in /  1011.1hPa SW 8.0mph /  12.9km/h 16.0mph /  25.7km/h 65% 0.00in /  0mm
03:44 62.9 °F /  17.2 °C 50.5 °F /  10.3 °C 29.86in /  1011.1hPa WSW 9.0mph /  14.5km/h 16.0mph /  25.7km/h 64% 0.00in /  0mm
03:49 62.9 °F /  17.2 °C 50.1 °F /  10.1 °C 29.86in /  1011.1hPa WSW 9.0mph /  14.5km/h 21.0mph /  33.8km/h 63% 0.00in /  0mm
03:54 62.8 °F /  17.1 °C 50.0 °F /  10 °C 29.86in /  1011.1hPa WSW 8.0mph /  12.9km/h 21.0mph /  33.8km/h 63% 0.00in /  0mm
03:59 62.9 °F /  17.2 °C 50.1 °F /  10.1 °C 29.86in /  1011.1hPa SW 9.0mph /  14.5km/h 18.0mph /  29km/h 63% 0.00in /  0mm
04:04 62.9 °F /  17.2 °C 50.1 °F /  10.1 °C 29.86in /  1011.1hPa WSW 8.0mph /  12.9km/h 14.0mph /  22.5km/h 63% 0.00in /  0mm
04:09 62.8 °F /  17.1 °C 50.0 °F /  10 °C 29.86in /  1011.1hPa West 14.0mph /  22.5km/h 16.0mph /  25.7km/h 63% 0.00in /  0mm
04:14 62.7 °F /  17.1 °C 49.9 °F /  9.9 °C 29.86in /  1011.1hPa SSW 7.0mph /  11.3km/h 16.0mph /  25.7km/h 63% 0.00in /  0mm
04:19 62.6 °F /  17 °C 49.8 °F /  9.9 °C 29.86in /  1011.1hPa SW 8.0mph /  12.9km/h 15.0mph /  24.1km/h 63% 0.00in /  0mm
04:24 62.7 °F /  17.1 °C 49.9 °F /  9.9 °C 29.86in /  1011.1hPa SSW 7.0mph /  11.3km/h 14.0mph /  22.5km/h 63% 0.00in /  0mm
04:29 62.8 °F /  17.1 °C 49.6 °F /  9.8 °C 29.86in /  1011.1hPa WSW 9.0mph /  14.5km/h 11.0mph /  17.7km/h 62% 0.00in /  0mm
04:34 62.8 °F /  17.1 °C 49.6 °F /  9.8 °C 29.85in /  1010.7hPa West 6.0mph /  9.7km/h 14.0mph /  22.5km/h 62% 0.00in /  0mm
04:39 62.7 °F /  17.1 °C 49.5 °F /  9.7 °C 29.85in /  1010.7hPa WSW 7.0mph /  11.3km/h 14.0mph /  22.5km/h 62% 0.00in /  0mm
04:44 62.4 °F /  16.9 °C 49.2 °F /  9.6 °C 29.85in /  1010.7hPa WSW 7.0mph /  11.3km/h 14.0mph /  22.5km/h 62% 0.00in /  0mm
04:49 62.1 °F /  16.7 °C 48.9 °F /  9.4 °C 29.85in /  1010.7hPa WSW 7.0mph /  11.3km/h 14.0mph /  22.5km/h 62% 0.00in /  0mm
04:54 61.8 °F /  16.6 °C 48.6 °F /  9.2 °C 29.85in /  1010.7hPa SW 7.0mph /  11.3km/h 14.0mph /  22.5km/h 62% 0.00in /  0mm
04:59 61.6 °F /  16.4 °C 48.9 °F /  9.4 °C 29.85in /  1010.7hPa SW 7.0mph /  11.3km/h 13.0mph /  20.9km/h 63% 0.00in /  0mm
05:04 61.5 °F /  16.4 °C 48.8 °F /  9.3 °C 29.85in /  1010.7hPa WSW 7.0mph /  11.3km/h 16.0mph /  25.7km/h 63% 0.00in /  0mm
05:09 61.8 °F /  16.6 °C 49.1 °F /  9.5 °C 29.85in /  1010.7hPa WSW 7.0mph /  11.3km/h 16.0mph /  25.7km/h 63% 0.00in /  0mm
05:14 62.4 °F /  16.9 °C 49.6 °F /  9.8 °C 29.84in /  1010.4hPa West 12.0mph /  19.3km/h 15.0mph /  24.1km/h 63% 0.00in /  0mm
05:19 62.9 °F /  17.2 °C 49.7 °F /  9.8 °C 29.84in /  1010.4hPa SW 6.0mph /  9.7km/h 12.0mph /  19.3km/h 62% 0.00in /  0mm
05:24 63.6 °F /  17.6 °C 49.9 °F /  9.9 °C 29.84in /  1010.4hPa SW 6.0mph /  9.7km/h 19.0mph /  30.6km/h 61% 0.00in /  0mm
05:29 64.0 °F /  17.8 °C 49.8 °F /  9.9 °C 29.85in /  1010.7hPa WSW 2.0mph /  3.2km/h 18.0mph /  29km/h 60% 0.00in /  0mm
05:34 64.1 °F /  17.8 °C 49.5 °F /  9.7 °C 29.85in /  1010.7hPa WNW 9.0mph /  14.5km/h 15.0mph /  24.1km/h 59% 0.00in /  0mm
05:39 63.6 °F /  17.6 °C 49.0 °F /  9.4 °C 29.85in /  1010.7hPa WSW 7.0mph /  11.3km/h 15.0mph /  24.1km/h 59% 0.00in /  0mm
05:44 63.1 °F /  17.3 °C 49.0 °F /  9.4 °C 29.85in /  1010.7hPa WSW 7.0mph /  11.3km/h 13.0mph /  20.9km/h 60% 0.00in /  0mm
05:49 62.8 °F /  17.1 °C 48.7 °F /  9.3 °C 29.85in /  1010.7hPa WSW 7.0mph /  11.3km/h 13.0mph /  20.9km/h 60% 0.00in /  0mm
05:54 62.5 °F /  16.9 °C 48.9 °F /  9.4 °C 29.84in /  1010.4hPa WSW 6.0mph /  9.7km/h 11.0mph /  17.7km/h 61% 0.00in /  0mm
05:59 62.5 °F /  16.9 °C 48.9 °F /  9.4 °C 29.84in /  1010.4hPa WSW 6.0mph /  9.7km/h 12.0mph /  19.3km/h 61% 0.00in /  0mm
06:04 62.7 °F /  17.1 °C 49.1 °F /  9.5 °C 29.85in /  1010.7hPa SW 5.0mph /  8km/h 12.0mph /  19.3km/h 61% 0.00in /  0mm
06:09 62.9 °F /  17.2 °C 49.2 °F /  9.6 °C 29.84in /  1010.4hPa SW 6.0mph /  9.7km/h 14.0mph /  22.5km/h 61% 0.00in /  0mm
06:14 63.4 °F /  17.4 °C 49.7 °F /  9.8 °C 29.84in /  1010.4hPa WSW 4.0mph /  6.4km/h 13.0mph /  20.9km/h 61% 0.00in /  0mm
06:19 63.7 °F /  17.6 °C 49.5 °F /  9.7 °C 29.84in /  1010.4hPa West 5.0mph /  8km/h 11.0mph /  17.7km/h 60% 0.00in /  0mm
06:24 63.9 °F /  17.7 °C 49.7 °F /  9.8 °C 29.84in /  1010.4hPa SW 7.0mph /  11.3km/h 12.0mph /  19.3km/h 60% 0.00in /  0mm
06:29 64.1 °F /  17.8 °C 49.5 °F /  9.7 °C 29.84in /  1010.4hPa SW 10.0mph /  16.1km/h 11.0mph /  17.7km/h 59% 0.00in /  0mm
06:34 64.4 °F /  18 °C 49.3 °F /  9.6 °C 29.84in /  1010.4hPa SW 6.0mph /  9.7km/h 13.0mph /  20.9km/h 58% 0.00in /  0mm
06:39 64.6 °F /  18.1 °C 49.5 °F /  9.7 °C 29.84in /  1010.4hPa SW 6.0mph /  9.7km/h 13.0mph /  20.9km/h 58% 0.00in /  0mm
06:44 64.8 °F /  18.2 °C 49.2 °F /  9.6 °C 29.84in /  1010.4hPa SW 6.0mph /  9.7km/h 11.0mph /  17.7km/h 57% 0.00in /  0mm
06:49 65.0 °F /  18.3 °C 49.4 °F /  9.7 °C 29.84in /  1010.4hPa SW 6.0mph /  9.7km/h 13.0mph /  20.9km/h 57% 0.00in /  0mm
06:54 65.2 °F /  18.4 °C 49.1 °F /  9.5 °C 29.84in /  1010.4hPa SW 7.0mph /  11.3km/h 13.0mph /  20.9km/h 56% 0.00in /  0mm
06:59 65.2 °F /  18.4 °C 49.1 °F /  9.5 °C 29.84in /  1010.4hPa SSW 7.0mph /  11.3km/h 11.0mph /  17.7km/h 56% 0.00in /  0mm
07:04 65.2 °F /  18.4 °C 49.1 °F /  9.5 °C 29.84in /  1010.4hPa WSW 9.0mph /  14.5km/h 13.0mph /  20.9km/h 56% 0.00in /  0mm
07:09 65.3 °F /  18.5 °C 49.2 °F /  9.6 °C 29.84in /  1010.4hPa SW 7.0mph /  11.3km/h 14.0mph /  22.5km/h 56% 0.00in /  0mm
07:14 65.4 °F /  18.6 °C 49.3 °F /  9.6 °C 29.84in /  1010.4hPa SW 6.0mph /  9.7km/h 14.0mph /  22.5km/h 56% 0.00in /  0mm
07:19 65.7 °F /  18.7 °C 49.1 °F /  9.5 °C 29.84in /  1010.4hPa SSW 7.0mph /  11.3km/h 12.0mph /  19.3km/h 55% 0.00in /  0mm
07:24 66.2 °F /  19 °C 49.6 °F /  9.8 °C 29.84in /  1010.4hPa WSW 9.0mph /  14.5km/h 15.0mph /  24.1km/h 55% 0.00in /  0mm
07:29 66.7 °F /  19.3 °C 49.5 °F /  9.7 °C 29.84in /  1010.4hPa SW 10.0mph /  16.1km/h 10.0mph /  16.1km/h 54% 0.00in /  0mm
07:34 67.1 °F /  19.5 °C 49.4 °F /  9.7 °C 29.83in /  1010hPa SSE 11.0mph /  17.7km/h 14.0mph /  22.5km/h 53% 0.00in /  0mm
07:39 67.6 °F /  19.8 °C 49.9 °F /  9.9 °C 29.83in /  1010hPa SW 7.0mph /  11.3km/h 15.0mph /  24.1km/h 53% 0.00in /  0mm
07:44 67.9 °F /  19.9 °C 50.1 °F /  10.1 °C 29.83in /  1010hPa SW 6.0mph /  9.7km/h 15.0mph /  24.1km/h 53% 0.00in /  0mm
07:49 68.1 °F /  20.1 °C 49.8 °F /  9.9 °C 29.83in /  1010hPa SW 6.0mph /  9.7km/h 14.0mph /  22.5km/h 52% 0.00in /  0mm
07:54 68.3 °F /  20.2 °C 50.0 °F /  10 °C 29.83in /  1010hPa SW 14.0mph /  22.5km/h 14.0mph /  22.5km/h 52% 0.00in /  0mm
07:59 68.8 °F /  20.4 °C 49.9 °F /  9.9 °C 29.82in /  1009.7hPa SSW 5.0mph /  8km/h 15.0mph /  24.1km/h 51% 0.00in /  0mm
08:04 69.0 °F /  20.6 °C 50.1 °F /  10.1 °C 29.82in /  1009.7hPa SW 7.0mph /  11.3km/h 14.0mph /  22.5km/h 51% 0.00in /  0mm
08:09 69.3 °F /  20.7 °C 49.9 °F /  9.9 °C 29.82in /  1009.7hPa SW 3.0mph /  4.8km/h 15.0mph /  24.1km/h 50% 0.00in /  0mm
08:14 69.4 °F /  20.8 °C 50.5 °F /  10.3 °C 29.82in /  1009.7hPa SSW 7.0mph /  11.3km/h 15.0mph /  24.1km/h 51% 0.00in /  0mm
08:19 70.0 °F /  21.1 °C 51.0 °F /  10.6 °C 29.81in /  1009.4hPa SW 6.0mph /  9.7km/h 14.0mph /  22.5km/h 51% 0.00in /  0mm
08:24 70.4 °F /  21.3 °C 50.3 °F /  10.2 °C 29.81in /  1009.4hPa WSW 4.0mph /  6.4km/h 15.0mph /  24.1km/h 49% 0.00in /  0mm
08:29 70.5 °F /  21.4 °C 50.4 °F /  10.2 °C 29.81in /  1009.4hPa SW 8.0mph /  12.9km/h 12.0mph /  19.3km/h 49% 0.00in /  0mm
08:34 71.0 °F /  21.7 °C 50.9 °F /  10.5 °C 29.81in /  1009.4hPa SSW 6.0mph /  9.7km/h 17.0mph /  27.4km/h 49% 0.00in /  0mm
08:39 71.5 °F /  21.9 °C 50.8 °F /  10.4 °C 29.81in /  1009.4hPa WSW 11.0mph /  17.7km/h 17.0mph /  27.4km/h 48% 0.00in /  0mm
08:44 71.7 °F /  22.1 °C 51.0 °F /  10.6 °C 29.80in /  1009hPa SW 8.0mph /  12.9km/h 19.0mph /  30.6km/h 48% 0.00in /  0mm
08:49 71.3 °F /  21.8 °C 51.1 °F /  10.6 °C 29.80in /  1009hPa SW 9.0mph /  14.5km/h 19.0mph /  30.6km/h 49% 0.00in /  0mm
08:54 71.2 °F /  21.8 °C 51.6 °F /  10.9 °C 29.80in /  1009hPa SW 7.0mph /  11.3km/h 17.0mph /  27.4km/h 50% 0.00in /  0mm
08:59 71.1 °F /  21.7 °C 51.5 °F /  10.8 °C 29.80in /  1009hPa SW 14.0mph /  22.5km/h 19.0mph /  30.6km/h 50% 0.00in /  0mm
09:04 71.3 °F /  21.8 °C 51.1 °F /  10.6 °C 29.80in /  1009hPa SSW 15.0mph /  24.1km/h 25.0mph /  40.2km/h 49% 0.00in /  0mm
09:09 71.4 °F /  21.9 °C 51.2 °F /  10.7 °C 29.80in /  1009hPa SW 10.0mph /  16.1km/h 25.0mph /  40.2km/h 49% 0.00in /  0mm
09:14 71.8 °F /  22.1 °C 52.2 °F /  11.2 °C 29.79in /  1008.7hPa SW 9.0mph /  14.5km/h 22.0mph /  35.4km/h 50% 0.00in /  0mm
09:19 71.9 °F /  22.2 °C 52.2 °F /  11.2 °C 29.79in /  1008.7hPa SW 9.0mph /  14.5km/h 19.0mph /  30.6km/h 50% 0.00in /  0mm
09:24 71.4 °F /  21.9 °C 51.8 °F /  11 °C 29.79in /  1008.7hPa SW 10.0mph /  16.1km/h 19.0mph /  30.6km/h 50% 0.00in /  0mm
09:29 70.9 °F /  21.6 °C 51.9 °F /  11.1 °C 29.79in /  1008.7hPa SSW 11.0mph /  17.7km/h 21.0mph /  33.8km/h 51% 0.00in /  0mm
09:34 70.6 °F /  21.4 °C 51.6 °F /  10.9 °C 29.79in /  1008.7hPa SW 6.0mph /  9.7km/h 20.0mph /  32.2km/h 51% 0.00in /  0mm
09:39 70.6 °F /  21.4 °C 52.1 °F /  11.2 °C 29.79in /  1008.7hPa SW 4.0mph /  6.4km/h 17.0mph /  27.4km/h 52% 0.00in /  0mm
09:44 70.3 °F /  21.3 °C 51.8 °F /  11 °C 29.79in /  1008.7hPa SW 9.0mph /  14.5km/h 17.0mph /  27.4km/h 52% 0.00in /  0mm
09:49 70.0 °F /  21.1 °C 51.6 °F /  10.9 °C 29.79in /  1008.7hPa SW 7.0mph /  11.3km/h 19.0mph /  30.6km/h 52% 0.00in /  0mm
09:54 69.8 °F /  21 °C 51.9 °F /  11.1 °C 29.79in /  1008.7hPa West 5.0mph /  8km/h 20.0mph /  32.2km/h 53% 0.00in /  0mm
09:59 69.7 °F /  20.9 °C 51.8 °F /  11 °C 29.79in /  1008.7hPa South 9.0mph /  14.5km/h 21.0mph /  33.8km/h 53% 0.00in /  0mm
10:04 69.8 °F /  21 °C 52.4 °F /  11.3 °C 29.79in /  1008.7hPa SSW 12.0mph /  19.3km/h 19.0mph /  30.6km/h 54% 0.00in /  0mm
10:09 69.8 °F /  21 °C 52.4 °F /  11.3 °C 29.79in /  1008.7hPa SW 10.0mph /  16.1km/h 19.0mph /  30.6km/h 54% 0.00in /  0mm
10:14 69.8 °F /  21 °C 51.9 °F /  11.1 °C 29.78in /  1008.4hPa SW 11.0mph /  17.7km/h 21.0mph /  33.8km/h 53% 0.00in /  0mm
10:19 69.8 °F /  21 °C 52.4 °F /  11.3 °C 29.78in /  1008.4hPa SW 11.0mph /  17.7km/h 21.0mph /  33.8km/h 54% 0.00in /  0mm
10:24 69.7 °F /  20.9 °C 52.3 °F /  11.3 °C 29.78in /  1008.4hPa SW 11.0mph /  17.7km/h 22.0mph /  35.4km/h 54% 0.00in /  0mm
10:29 70.0 °F /  21.1 °C 52.1 °F /  11.2 °C 29.78in /  1008.4hPa SW 12.0mph /  19.3km/h 26.0mph /  41.8km/h 53% 0.00in /  0mm
10:34 70.3 °F /  21.3 °C 52.9 °F /  11.6 °C 29.78in /  1008.4hPa SW 12.0mph /  19.3km/h 27.0mph /  43.5km/h 54% 0.00in /  0mm
10:39 70.3 °F /  21.3 °C 52.9 °F /  11.6 °C 29.78in /  1008.4hPa SW 14.0mph /  22.5km/h 24.0mph /  38.6km/h 54% 0.00in /  0mm
10:44 70.2 °F /  21.2 °C 52.8 °F /  11.6 °C 29.78in /  1008.4hPa WNW 13.0mph /  20.9km/h 25.0mph /  40.2km/h 54% 0.00in /  0mm
10:49 69.8 °F /  21 °C 52.9 °F /  11.6 °C 29.78in /  1008.4hPa WSW 8.0mph /  12.9km/h 33.0mph /  53.1km/h 55% 0.00in /  0mm
10:54 69.4 °F /  20.8 °C 53.0 °F /  11.7 °C 29.78in /  1008.4hPa SW 17.0mph /  27.4km/h 29.0mph /  46.7km/h 56% 0.00in /  0mm
10:59 69.5 °F /  20.8 °C 53.1 °F /  11.7 °C 29.78in /  1008.4hPa West 14.0mph /  22.5km/h 26.0mph /  41.8km/h 56% 0.00in /  0mm
11:04 70.3 °F /  21.3 °C 54.3 °F /  12.4 °C 29.77in /  1008hPa WSW 10.0mph /  16.1km/h 27.0mph /  43.5km/h 57% 0.00in /  0mm
11:09 70.9 °F /  21.6 °C 53.9 °F /  12.2 °C 29.77in /  1008hPa WNW 18.0mph /  29km/h 24.0mph /  38.6km/h 55% 0.00in /  0mm
11:14 70.7 °F /  21.5 °C 54.2 °F /  12.3 °C 29.77in /  1008hPa SW 14.0mph /  22.5km/h 24.0mph /  38.6km/h 56% 0.00in /  0mm
11:19 71.0 °F /  21.7 °C 54.0 °F /  12.2 °C 29.78in /  1008.4hPa SW 13.0mph /  20.9km/h 29.0mph /  46.7km/h 55% 0.00in /  0mm
11:24 71.4 °F /  21.9 °C 54.9 °F /  12.7 °C 29.77in /  1008hPa WSW 12.0mph /  19.3km/h 29.0mph /  46.7km/h 56% 0.00in /  0mm
11:29 71.3 °F /  21.8 °C 54.3 °F /  12.4 °C 29.77in /  1008hPa WSW 12.0mph /  19.3km/h 23.0mph /  37km/h 55% 0.00in /  0mm
11:34 70.6 °F /  21.4 °C 54.1 °F /  12.3 °C 29.77in /  1008hPa WSW 13.0mph /  20.9km/h 25.0mph /  40.2km/h 56% 0.00in /  0mm
11:39 70.3 °F /  21.3 °C 54.3 °F /  12.4 °C 29.76in /  1007.7hPa SSW 17.0mph /  27.4km/h 24.0mph /  38.6km/h 57% 0.00in /  0mm
11:44 70.7 °F /  21.5 °C 54.2 °F /  12.3 °C 29.77in /  1008hPa WSW 13.0mph /  20.9km/h 24.0mph /  38.6km/h 56% 0.00in /  0mm
11:49 70.3 °F /  21.3 °C 54.3 °F /  12.4 °C 29.76in /  1007.7hPa SSW 17.0mph /  27.4km/h 25.0mph /  40.2km/h 57% 0.00in /  0mm
11:54 70.3 °F /  21.3 °C 54.8 °F /  12.7 °C 29.77in /  1008hPa West 11.0mph /  17.7km/h 22.0mph /  35.4km/h 58% 0.00in /  0mm
11:59 70.6 °F /  21.4 °C 54.6 °F /  12.6 °C 29.76in /  1007.7hPa SW 16.0mph /  25.7km/h 25.0mph /  40.2km/h 57% 0.00in /  0mm
12:04 71.0 °F /  21.7 °C 55.0 °F /  12.8 °C 29.76in /  1007.7hPa West 19.0mph /  30.6km/h 23.0mph /  37km/h 57% 0.00in /  0mm
12:09 70.9 °F /  21.6 °C 54.9 °F /  12.7 °C 29.76in /  1007.7hPa SW 18.0mph /  29km/h 26.0mph /  41.8km/h 57% 0.00in /  0mm
12:14 70.7 °F /  21.5 °C 55.2 °F /  12.9 °C 29.76in /  1007.7hPa West 11.0mph /  17.7km/h 26.0mph /  41.8km/h 58% 0.00in /  0mm
12:19 71.5 °F /  21.9 °C 55.0 °F /  12.8 °C 29.76in /  1007.7hPa WSW 13.0mph /  20.9km/h 26.0mph /  41.8km/h 56% 0.00in /  0mm
12:24 71.6 °F /  22 °C 55.1 °F /  12.8 °C 29.76in /  1007.7hPa WSW 15.0mph /  24.1km/h 35.0mph /  56.3km/h 56% 0.00in /  0mm
12:29 71.6 °F /  22 °C 55.6 °F /  13.1 °C 29.77in /  1008hPa WSW 15.0mph /  24.1km/h 35.0mph /  56.3km/h 57% 0.00in /  0mm
12:34 70.5 °F /  21.4 °C 54.5 °F /  12.5 °C 29.76in /  1007.7hPa WSW 16.0mph /  25.7km/h 31.0mph /  49.9km/h 57% 0.00in /  0mm
12:39 69.4 °F /  20.8 °C 54.0 °F /  12.2 °C 29.77in /  1008hPa SW 14.0mph /  22.5km/h 30.0mph /  48.3km/h 58% 0.00in /  0mm
12:44 68.2 °F /  20.1 °C 52.9 °F /  11.6 °C 29.77in /  1008hPa SW 15.0mph /  24.1km/h 29.0mph /  46.7km/h 58% 0.00in /  0mm
12:49 66.7 °F /  19.3 °C 52.8 °F /  11.6 °C 29.77in /  1008hPa WSW 16.0mph /  25.7km/h 33.0mph /  53.1km/h 61% 0.00in /  0mm
12:54 67.3 °F /  19.6 °C 53.4 °F /  11.9 °C 29.77in /  1008hPa WSW 16.0mph /  25.7km/h 33.0mph /  53.1km/h 61% 0.00in /  0mm
12:59 68.3 °F /  20.2 °C 53.9 °F /  12.2 °C 29.77in /  1008hPa West 14.0mph /  22.5km/h 29.0mph /  46.7km/h 60% 0.00in /  0mm
13:04 68.8 °F /  20.4 °C 54.8 °F /  12.7 °C 29.76in /  1007.7hPa WSW 12.0mph /  19.3km/h 27.0mph /  43.5km/h 61% 0.00in /  0mm
13:09 69.6 °F /  20.9 °C 55.1 °F /  12.8 °C 29.76in /  1007.7hPa West 18.0mph /  29km/h 32.0mph /  51.5km/h 60% 0.00in /  0mm
13:14 69.8 °F /  21 °C 54.8 °F /  12.7 °C 29.76in /  1007.7hPa SW 24.0mph /  38.6km/h 33.0mph /  53.1km/h 59% 0.00in /  0mm
13:19 69.3 °F /  20.7 °C 54.8 °F /  12.7 °C 29.76in /  1007.7hPa WSW 16.0mph /  25.7km/h 38.0mph /  61.2km/h 60% 0.00in /  0mm
13:24 68.7 °F /  20.4 °C 54.3 °F /  12.4 °C 29.76in /  1007.7hPa WSW 17.0mph /  27.4km/h 38.0mph /  61.2km/h 60% 0.00in /  0mm
13:29 68.2 °F /  20.1 °C 54.7 °F /  12.6 °C 29.77in /  1008hPa WSW 17.0mph /  27.4km/h 34.0mph /  54.7km/h 62% 0.00in /  0mm
13:34 67.7 °F /  19.8 °C 54.6 °F /  12.6 °C 29.78in /  1008.4hPa West 15.0mph /  24.1km/h 34.0mph /  54.7km/h 63% 0.00in /  0mm
13:39 67.0 °F /  19.4 °C 54.4 °F /  12.4 °C 29.77in /  1008hPa WNW 17.0mph /  27.4km/h 27.0mph /  43.5km/h 64% 0.00in /  0mm
13:44 66.3 °F /  19.1 °C 53.8 °F /  12.1 °C 29.77in /  1008hPa West 16.0mph /  25.7km/h 26.0mph /  41.8km/h 64% 0.00in /  0mm
13:49 65.9 °F /  18.8 °C 53.8 °F /  12.1 °C 29.77in /  1008hPa West 12.0mph /  19.3km/h 26.0mph /  41.8km/h 65% 0.00in /  0mm
13:54 65.5 °F /  18.6 °C 54.7 °F /  12.6 °C 29.77in /  1008hPa West 13.0mph /  20.9km/h 27.0mph /  43.5km/h 68% 0.00in /  0mm
13:59 65.1 °F /  18.4 °C 54.3 °F /  12.4 °C 29.77in /  1008hPa West 13.0mph /  20.9km/h 29.0mph /  46.7km/h 68% 0.00in /  0mm
14:04 65.3 °F /  18.5 °C 54.1 °F /  12.3 °C 29.77in /  1008hPa WSW 9.0mph /  14.5km/h 31.0mph /  49.9km/h 67% 0.00in /  0mm
14:09 65.5 °F /  18.6 °C 53.8 °F /  12.1 °C 29.77in /  1008hPa SSW 14.0mph /  22.5km/h 29.0mph /  46.7km/h 66% 0.00in /  0mm
14:14 65.5 °F /  18.6 °C 53.4 °F /  11.9 °C 29.77in /  1008hPa West 13.0mph /  20.9km/h 25.0mph /  40.2km/h 65% 0.00in /  0mm
14:19 65.9 °F /  18.8 °C 53.8 °F /  12.1 °C 29.77in /  1008hPa West 13.0mph /  20.9km/h 25.0mph /  40.2km/h 65% 0.00in /  0mm
14:24 66.5 °F /  19.2 °C 53.9 °F /  12.2 °C 29.76in /  1007.7hPa West 12.0mph /  19.3km/h 23.0mph /  37km/h 64% 0.00in /  0mm
14:29 67.0 °F /  19.4 °C 54.8 °F /  12.7 °C 29.77in /  1008hPa West 12.0mph /  19.3km/h 31.0mph /  49.9km/h 65% 0.00in /  0mm
14:34 68.0 °F /  20 °C 54.5 °F /  12.5 °C 29.77in /  1008hPa WSW 13.0mph /  20.9km/h 31.0mph /  49.9km/h 62% 0.00in /  0mm
14:39 68.8 °F /  20.4 °C 55.7 °F /  13.2 °C 29.77in /  1008hPa SW 16.0mph /  25.7km/h 26.0mph /  41.8km/h 63% 0.00in /  0mm
14:44 69.3 °F /  20.7 °C 54.8 °F /  12.7 °C 29.77in /  1008hPa SW 16.0mph /  25.7km/h 22.0mph /  35.4km/h 60% 0.00in /  0mm
14:49 69.4 °F /  20.8 °C 55.4 °F /  13 °C 29.77in /  1008hPa WNW 13.0mph /  20.9km/h 27.0mph /  43.5km/h 61% 0.00in /  0mm
14:54 69.4 °F /  20.8 °C 55.4 °F /  13 °C 29.77in /  1008hPa WSW 15.0mph /  24.1km/h 27.0mph /  43.5km/h 61% 0.00in /  0mm
14:59 69.7 °F /  20.9 °C 54.7 °F /  12.6 °C 29.77in /  1008hPa WSW 14.0mph /  22.5km/h 27.0mph /  43.5km/h 59% 0.00in /  0mm
15:04 70.0 °F /  21.1 °C 55.5 °F /  13.1 °C 29.77in /  1008hPa WSW 12.0mph /  19.3km/h 23.0mph /  37km/h 60% 0.00in /  0mm
15:09 69.4 °F /  20.8 °C 54.9 °F /  12.7 °C 29.77in /  1008hPa WSW 11.0mph /  17.7km/h 27.0mph /  43.5km/h 60% 0.00in /  0mm
15:14 68.9 °F /  20.5 °C 54.9 °F /  12.7 °C 29.77in /  1008hPa SW 8.0mph /  12.9km/h 19.0mph /  30.6km/h 61% 0.00in /  0mm
15:19 69.0 °F /  20.6 °C 55.0 °F /  12.8 °C 29.77in /  1008hPa West 5.0mph /  8km/h 24.0mph /  38.6km/h 61% 0.00in /  0mm
15:24 69.5 °F /  20.8 °C 55.5 °F /  13.1 °C 29.77in /  1008hPa WSW 12.0mph /  19.3km/h 24.0mph /  38.6km/h 61% 0.00in /  0mm
15:29 69.8 °F /  21 °C 55.3 °F /  12.9 °C 29.77in /  1008hPa WSW 11.0mph /  17.7km/h 22.0mph /  35.4km/h 60% 0.00in /  0mm
15:34 70.1 °F /  21.2 °C 55.1 °F /  12.8 °C 29.77in /  1008hPa WSW 11.0mph /  17.7km/h 22.0mph /  35.4km/h 59% 0.00in /  0mm
15:39 69.5 °F /  20.8 °C 54.5 °F /  12.5 °C 29.76in /  1007.7hPa WSW 11.0mph /  17.7km/h 22.0mph /  35.4km/h 59% 0.00in /  0mm
15:44 69.3 °F /  20.7 °C 55.3 °F /  12.9 °C 29.76in /  1007.7hPa WSW 12.0mph /  19.3km/h 22.0mph /  35.4km/h 61% 0.00in /  0mm
15:49 69.9 °F /  21.1 °C 55.4 °F /  13 °C 29.76in /  1007.7hPa West 8.0mph /  12.9km/h 18.0mph /  29km/h 60% 0.00in /  0mm
15:54 70.0 °F /  21.1 °C 55.5 °F /  13.1 °C 29.77in /  1008hPa WSW 11.0mph /  17.7km/h 22.0mph /  35.4km/h 60% 0.00in /  0mm
15:59 69.5 °F /  20.8 °C 54.5 °F /  12.5 °C 29.76in /  1007.7hPa WSW 11.0mph /  17.7km/h 22.0mph /  35.4km/h 59% 0.00in /  0mm
16:04 69.0 °F /  20.6 °C 54.5 °F /  12.5 °C 29.77in /  1008hPa WSW 14.0mph /  22.5km/h 18.0mph /  29km/h 60% 0.00in /  0mm
16:09 69.3 °F /  20.7 °C 54.8 °F /  12.7 °C 29.77in /  1008hPa West 6.0mph /  9.7km/h 22.0mph /  35.4km/h 60% 0.00in /  0mm
16:14 69.2 °F /  20.7 °C 55.2 °F /  12.9 °C 29.77in /  1008hPa SW 7.0mph /  11.3km/h 22.0mph /  35.4km/h 61% 0.00in /  0mm
16:19 69.5 °F /  20.8 °C 55.5 °F /  13.1 °C 29.77in /  1008hPa WSW 15.0mph /  24.1km/h 17.0mph /  27.4km/h 61% 0.00in /  0mm
16:24 69.1 °F /  20.6 °C 55.1 °F /  12.8 °C 29.77in /  1008hPa WSW 11.0mph /  17.7km/h 19.0mph /  30.6km/h 61% 0.00in /  0mm
16:29 69.1 °F /  20.6 °C 54.6 °F /  12.6 °C 29.77in /  1008hPa WSW 10.0mph /  16.1km/h 19.0mph /  30.6km/h 60% 0.00in /  0mm
16:34 68.5 °F /  20.3 °C 55.0 °F /  12.8 °C 29.77in /  1008hPa WSW 13.0mph /  20.9km/h 20.0mph /  32.2km/h 62% 0.00in /  0mm
16:39 68.6 °F /  20.3 °C 54.6 °F /  12.6 °C 29.77in /  1008hPa West 12.0mph /  19.3km/h 17.0mph /  27.4km/h 61% 0.00in /  0mm
16:44 68.4 °F /  20.2 °C 54.9 °F /  12.7 °C 29.77in /  1008hPa WNW 9.0mph /  14.5km/h 17.0mph /  27.4km/h 62% 0.00in /  0mm
16:49 67.8 °F /  19.9 °C 54.3 °F /  12.4 °C 29.78in /  1008.4hPa WSW 10.0mph /  16.1km/h 20.0mph /  32.2km/h 62% 0.00in /  0mm
16:54 66.6 °F /  19.2 °C 53.6 °F /  12 °C 29.77in /  1008hPa WSW 12.0mph /  19.3km/h 21.0mph /  33.8km/h 63% 0.00in /  0mm
16:59 65.4 °F /  18.6 °C 52.9 °F /  11.6 °C 29.78in /  1008.4hPa WSW 12.0mph /  19.3km/h 21.0mph /  33.8km/h 64% 0.00in /  0mm
17:04 65.5 °F /  18.6 °C 53.4 °F /  11.9 °C 29.78in /  1008.4hPa WSW 12.0mph /  19.3km/h 21.0mph /  33.8km/h 65% 0.00in /  0mm
17:09 65.1 °F /  18.4 °C 53.0 °F /  11.7 °C 29.78in /  1008.4hPa WSW 10.0mph /  16.1km/h 20.0mph /  32.2km/h 65% 0.00in /  0mm
17:14 64.7 °F /  18.2 °C 52.7 °F /  11.5 °C 29.78in /  1008.4hPa WSW 7.0mph /  11.3km/h 17.0mph /  27.4km/h 65% 0.00in /  0mm
17:19 63.4 °F /  17.4 °C 52.2 °F /  11.2 °C 29.79in /  1008.7hPa WSW 10.0mph /  16.1km/h 23.0mph /  37km/h 67% 0.00in /  0mm
17:24 62.2 °F /  16.8 °C 51.5 °F /  10.8 °C 29.78in /  1008.4hPa WSW 10.0mph /  16.1km/h 23.0mph /  37km/h 68% 0.00in /  0mm
17:29 62.1 °F /  16.7 °C 51.8 °F /  11 °C 29.79in /  1008.7hPa SSW 7.0mph /  11.3km/h 20.0mph /  32.2km/h 69% 0.00in /  0mm
17:34 61.5 °F /  16.4 °C 51.2 °F /  10.7 °C 29.79in /  1008.7hPa SW 13.0mph /  20.9km/h 22.0mph /  35.4km/h 69% 0.00in /  0mm
17:39 61.6 °F /  16.4 °C 51.7 °F /  10.9 °C 29.79in /  1008.7hPa West 3.0mph /  4.8km/h 17.0mph /  27.4km/h 70% 0.00in /  0mm
17:44 61.9 °F /  16.6 °C 51.6 °F /  10.9 °C 29.79in /  1008.7hPa WSW 9.0mph /  14.5km/h 13.0mph /  20.9km/h 69% 0.00in /  0mm
17:49 61.8 °F /  16.6 °C 51.1 °F /  10.6 °C 29.79in /  1008.7hPa WNW 6.0mph /  9.7km/h 14.0mph /  22.5km/h 68% 0.00in /  0mm
17:54 60.6 °F /  15.9 °C 50.8 °F /  10.4 °C 29.80in /  1009hPa WSW 8.0mph /  12.9km/h 17.0mph /  27.4km/h 70% 0.00in /  0mm
17:59 60.1 °F /  15.6 °C 50.7 °F /  10.4 °C 29.79in /  1008.7hPa WSW 8.0mph /  12.9km/h 17.0mph /  27.4km/h 71% 0.00in /  0mm
18:04 59.5 °F /  15.3 °C 50.1 °F /  10.1 °C 29.79in /  1008.7hPa WSW 8.0mph /  12.9km/h 16.0mph /  25.7km/h 71% 0.00in /  0mm
18:09 59.3 °F /  15.2 °C 50.3 °F /  10.2 °C 29.79in /  1008.7hPa WSW 9.0mph /  14.5km/h 16.0mph /  25.7km/h 72% 0.00in /  0mm
18:14 59.0 °F /  15 °C 50.0 °F /  10 °C 29.79in /  1008.7hPa WSW 8.0mph /  12.9km/h 17.0mph /  27.4km/h 72% 0.00in /  0mm
18:19 59.7 °F /  15.4 °C 50.7 °F /  10.4 °C 29.79in /  1008.7hPa SW 4.0mph /  6.4km/h 17.0mph /  27.4km/h 72% 0.00in /  0mm
18:24 59.9 °F /  15.5 °C 50.5 °F /  10.3 °C 29.79in /  1008.7hPa SW 19.0mph /  30.6km/h 19.0mph /  30.6km/h 71% 0.00in /  0mm
18:29 59.2 °F /  15.1 °C 49.8 °F /  9.9 °C 29.80in /  1009hPa SSW 7.0mph /  11.3km/h 19.0mph /  30.6km/h 71% 0.00in /  0mm
18:34 58.3 °F /  14.6 °C 49.3 °F /  9.6 °C 29.80in /  1009hPa WNW 6.0mph /  9.7km/h 16.0mph /  25.7km/h 72% 0.00in /  0mm
18:39 58.2 °F /  14.6 °C 49.6 °F /  9.8 °C 29.80in /  1009hPa WSW 10.0mph /  16.1km/h 12.0mph /  19.3km/h 73% 0.00in /  0mm
18:44 58.3 °F /  14.6 °C 49.7 °F /  9.8 °C 29.80in /  1009hPa SW 12.0mph /  19.3km/h 14.0mph /  22.5km/h 73% 0.00in /  0mm
18:49 58.1 °F /  14.5 °C 49.5 °F /  9.7 °C 29.80in /  1009hPa WSW 7.0mph /  11.3km/h 14.0mph /  22.5km/h 73% 0.00in /  0mm
18:54 57.8 °F /  14.3 °C 49.2 °F /  9.6 °C 29.80in /  1009hPa WSW 7.0mph /  11.3km/h 13.0mph /  20.9km/h 73% 0.00in /  0mm
18:59 57.8 °F /  14.3 °C 49.2 °F /  9.6 °C 29.80in /  1009hPa WSW 7.0mph /  11.3km/h 14.0mph /  22.5km/h 73% 0.00in /  0mm
19:04 57.3 °F /  14.1 °C 49.1 °F /  9.5 °C 29.80in /  1009hPa WSW 7.0mph /  11.3km/h 14.0mph /  22.5km/h 74% 0.00in /  0mm
19:09 56.9 °F /  13.8 °C 48.7 °F /  9.3 °C 29.80in /  1009hPa WSW 6.0mph /  9.7km/h 11.0mph /  17.7km/h 74% 0.00in /  0mm
19:14 56.4 °F /  13.6 °C 48.6 °F /  9.2 °C 29.80in /  1009hPa WSW 6.0mph /  9.7km/h 9.0mph /  14.5km/h 75% 0.00in /  0mm
19:19 56.0 °F /  13.3 °C 48.2 °F /  9 °C 29.81in /  1009.4hPa SW 5.0mph /  8km/h 9.0mph /  14.5km/h 75% 0.00in /  0mm
19:24 55.7 °F /  13.2 °C 47.9 °F /  8.8 °C 29.81in /  1009.4hPa West 2.0mph /  3.2km/h 9.0mph /  14.5km/h 75% 0.00in /  0mm
19:29 55.7 °F /  13.2 °C 48.2 °F /  9 °C 29.82in /  1009.7hPa West 6.0mph /  9.7km/h 7.0mph /  11.3km/h 76% 0.00in /  0mm
19:34 55.9 °F /  13.3 °C 48.4 °F /  9.1 °C 29.81in /  1009.4hPa SW 7.0mph /  11.3km/h 9.0mph /  14.5km/h 76% 0.00in /  0mm
19:39 55.7 °F /  13.2 °C 47.9 °F /  8.8 °C 29.80in /  1009hPa SSW 3.0mph /  4.8km/h 8.0mph /  12.9km/h 75% 0.00in /  0mm
19:44 55.3 °F /  12.9 °C 47.9 °F /  8.8 °C 29.81in /  1009.4hPa SW 4.0mph /  6.4km/h 8.0mph /  12.9km/h 76% 0.00in /  0mm
19:49 55.0 °F /  12.8 °C 47.6 °F /  8.7 °C 29.81in /  1009.4hPa SW 3.0mph /  4.8km/h 7.0mph /  11.3km/h 76% 0.00in /  0mm
19:54 54.4 °F /  12.4 °C 47.0 °F /  8.3 °C 29.81in /  1009.4hPa SSW 3.0mph /  4.8km/h 7.0mph /  11.3km/h 76% 0.00in /  0mm
19:59 53.6 °F /  12 °C 46.6 °F /  8.1 °C 29.81in /  1009.4hPa SW 4.0mph /  6.4km/h 7.0mph /  11.3km/h 77% 0.00in /  0mm
20:04 52.8 °F /  11.6 °C 46.1 °F /  7.8 °C 29.82in /  1009.7hPa SSW 3.0mph /  4.8km/h 11.0mph /  17.7km/h 78% 0.00in /  0mm
20:09 52.4 °F /  11.3 °C 45.7 °F /  7.6 °C 29.82in /  1009.7hPa SSW 4.0mph /  6.4km/h 6.0mph /  9.7km/h 78% 0.00in /  0mm
20:14 52.1 °F /  11.2 °C 45.8 °F /  7.7 °C 29.82in /  1009.7hPa SW 4.0mph /  6.4km/h 8.0mph /  12.9km/h 79% 0.00in /  0mm
20:19 52.1 °F /  11.2 °C 45.8 °F /  7.7 °C 29.83in /  1010hPa SW 4.0mph /  6.4km/h 9.0mph /  14.5km/h 79% 0.00in /  0mm
20:24 52.0 °F /  11.1 °C 45.7 °F /  7.6 °C 29.83in /  1010hPa SW 4.0mph /  6.4km/h 9.0mph /  14.5km/h 79% 0.00in /  0mm
20:29 51.8 °F /  11 °C 45.5 °F /  7.5 °C 29.83in /  1010hPa SW 4.0mph /  6.4km/h 9.0mph /  14.5km/h 79% 0.00in /  0mm
20:34 51.4 °F /  10.8 °C 45.1 °F /  7.3 °C 29.83in /  1010hPa SW 1.0mph /  1.6km/h 6.0mph /  9.7km/h 79% 0.00in /  0mm
20:39 51.1 °F /  10.6 °C 44.8 °F /  7.1 °C 29.83in /  1010hPa SSW 4.0mph /  6.4km/h 7.0mph /  11.3km/h 79% 0.00in /  0mm
20:44 50.8 °F /  10.4 °C 44.9 °F /  7.2 °C 29.84in /  1010.4hPa SSW 4.0mph /  6.4km/h 8.0mph /  12.9km/h 80% 0.00in /  0mm
20:49 50.5 °F /  10.3 °C 44.6 °F /  7 °C 29.84in /  1010.4hPa SSW 4.0mph /  6.4km/h 9.0mph /  14.5km/h 80% 0.00in /  0mm
20:54 50.1 °F /  10.1 °C 44.2 °F /  6.8 °C 29.84in /  1010.4hPa West 6.0mph /  9.7km/h 10.0mph /  16.1km/h 80% 0.00in /  0mm
20:59 49.7 °F /  9.8 °C 43.8 °F /  6.6 °C 29.85in /  1010.7hPa SSW 6.0mph /  9.7km/h 9.0mph /  14.5km/h 80% 0.00in /  0mm
21:04 49.4 °F /  9.7 °C 43.8 °F /  6.6 °C 29.85in /  1010.7hPa SW 5.0mph /  8km/h 10.0mph /  16.1km/h 81% 0.00in /  0mm
21:09 49.2 °F /  9.6 °C 43.6 °F /  6.4 °C 29.85in /  1010.7hPa SW 5.0mph /  8km/h 10.0mph /  16.1km/h 81% 0.00in /  0mm
21:14 49.1 °F /  9.5 °C 43.5 °F /  6.4 °C 29.85in /  1010.7hPa SSW 5.0mph /  8km/h 10.0mph /  16.1km/h 81% 0.00in /  0mm
21:19 48.9 °F /  9.4 °C 43.6 °F /  6.4 °C 29.85in /  1010.7hPa SW 3.0mph /  4.8km/h 7.0mph /  11.3km/h 82% 0.00in /  0mm
21:24 48.6 °F /  9.2 °C 43.4 °F /  6.3 °C 29.85in /  1010.7hPa SSW 4.0mph /  6.4km/h 7.0mph /  11.3km/h 82% 0.00in /  0mm
21:29 48.5 °F /  9.2 °C 43.3 °F /  6.3 °C 29.86in /  1011.1hPa SW 4.0mph /  6.4km/h 10.0mph /  16.1km/h 82% 0.00in /  0mm
21:34 48.4 °F /  9.1 °C 43.2 °F /  6.2 °C 29.86in /  1011.1hPa SW 2.0mph /  3.2km/h 9.0mph /  14.5km/h 82% 0.00in /  0mm
21:39 48.3 °F /  9.1 °C 43.4 °F /  6.3 °C 29.86in /  1011.1hPa SW 4.0mph /  6.4km/h 6.0mph /  9.7km/h 83% 0.00in /  0mm
21:44 48.2 °F /  9 °C 43.3 °F /  6.3 °C 29.86in /  1011.1hPa South 2.0mph /  3.2km/h 9.0mph /  14.5km/h 83% 0.00in /  0mm
21:49 48.1 °F /  8.9 °C 43.2 °F /  6.2 °C 29.86in /  1011.1hPa SW 5.0mph /  8km/h 13.0mph /  20.9km/h 83% 0.00in /  0mm
21:54 48.1 °F /  8.9 °C 43.5 °F /  6.4 °C 29.86in /  1011.1hPa SW 6.0mph /  9.7km/h 13.0mph /  20.9km/h 84% 0.00in /  0mm
21:59 48.0 °F /  8.9 °C 43.4 °F /  6.3 °C 29.86in /  1011.1hPa WSW 8.0mph /  12.9km/h 10.0mph /  16.1km/h 84% 0.00in /  0mm
22:04 48.0 °F /  8.9 °C 43.4 °F /  6.3 °C 29.87in /  1011.4hPa West 4.0mph /  6.4km/h 12.0mph /  19.3km/h 84% 0.00in /  0mm
22:09 47.9 °F /  8.8 °C 43.3 °F /  6.3 °C 29.88in /  1011.7hPa SW 8.0mph /  12.9km/h 11.0mph /  17.7km/h 84% 0.00in /  0mm
22:14 47.8 °F /  8.8 °C 43.5 °F /  6.4 °C 29.87in /  1011.4hPa SW 6.0mph /  9.7km/h 12.0mph /  19.3km/h 85% 0.00in /  0mm
22:19 47.7 °F /  8.7 °C 43.4 °F /  6.3 °C 29.87in /  1011.4hPa SW 5.0mph /  8km/h 12.0mph /  19.3km/h 85% 0.00in /  0mm
22:24 47.6 °F /  8.7 °C 43.3 °F /  6.3 °C 29.87in /  1011.4hPa SW 5.0mph /  8km/h 13.0mph /  20.9km/h 85% 0.00in /  0mm
22:29 47.6 °F /  8.7 °C 43.3 °F /  6.3 °C 29.87in /  1011.4hPa SW 5.0mph /  8km/h 13.0mph /  20.9km/h 85% 0.00in /  0mm
22:34 47.5 °F /  8.6 °C 43.5 °F /  6.4 °C 29.87in /  1011.4hPa SW 4.0mph /  6.4km/h 10.0mph /  16.1km/h 86% 0.00in /  0mm
22:39 47.5 °F /  8.6 °C 43.5 °F /  6.4 °C 29.87in /  1011.4hPa SW 7.0mph /  11.3km/h 7.0mph /  11.3km/h 86% 0.00in /  0mm
22:44 47.5 °F /  8.6 °C 43.5 °F /  6.4 °C 29.88in /  1011.7hPa SW 3.0mph /  4.8km/h 9.0mph /  14.5km/h 86% 0.00in /  0mm
22:49 47.4 °F /  8.6 °C 43.4 °F /  6.3 °C 29.88in /  1011.7hPa SW 4.0mph /  6.4km/h 13.0mph /  20.9km/h 86% 0.00in /  0mm
22:54 47.4 °F /  8.6 °C 43.4 °F /  6.3 °C 29.88in /  1011.7hPa SW 2.0mph /  3.2km/h 10.0mph /  16.1km/h 86% 0.00in /  0mm
22:59 47.5 °F /  8.6 °C 43.5 °F /  6.4 °C 29.88in /  1011.7hPa SW 2.0mph /  3.2km/h 7.0mph /  11.3km/h 86% 0.00in /  0mm
23:04 47.5 °F /  8.6 °C 43.5 °F /  6.4 °C 29.88in /  1011.7hPa South 5.0mph /  8km/h 7.0mph /  11.3km/h 86% 0.00in /  0mm
23:09 47.8 °F /  8.8 °C 44.1 °F /  6.7 °C 29.88in /  1011.7hPa WSW 1.0mph /  1.6km/h 7.0mph /  11.3km/h 87% 0.00in /  0mm
23:14 48.0 °F /  8.9 °C 44.3 °F /  6.8 °C 29.91in /  1012.8hPa WSW 4.0mph /  6.4km/h 7.0mph /  11.3km/h 87% 0.00in /  0mm
23:19 48.1 °F /  8.9 °C 44.4 °F /  6.9 °C 29.91in /  1012.8hPa WNW 3.0mph /  4.8km/h 7.0mph /  11.3km/h 87% 0.00in /  0mm
23:24 48.3 °F /  9.1 °C 44.3 °F /  6.8 °C 29.91in /  1012.8hPa West 2.0mph /  3.2km/h 4.0mph /  6.4km/h 86% 0.00in /  0mm
23:29 48.4 °F /  9.1 °C 44.4 °F /  6.9 °C 29.90in /  1012.4hPa West 1.0mph /  1.6km/h 4.0mph /  6.4km/h 86% 0.00in /  0mm
23:34 48.4 °F /  9.1 °C 44.4 °F /  6.9 °C 29.90in /  1012.4hPa Calm   2.0mph /  3.2km/h 86% 0.00in /  0mm
23:39 48.4 °F /  9.1 °C 44.4 °F /  6.9 °C 29.91in /  1012.8hPa Calm   2.0mph /  3.2km/h 86% 0.00in /  0mm
23:44 48.3 °F /  9.1 °C 44.3 °F /  6.8 °C 29.91in /  1012.8hPa WSW 2.0mph /  3.2km/h 2.0mph /  3.2km/h 86% 0.00in /  0mm
23:49 48.3 °F /  9.1 °C 44.3 °F /  6.8 °C 29.91in /  1012.8hPa Calm   4.0mph /  6.4km/h 86% 0.00in /  0mm
23:54 48.4 °F /  9.1 °C 44.4 °F /  6.9 °C 29.91in /  1012.8hPa Calm   2.0mph /  3.2km/h 86% 0.00in /  0mm
23:59 48.4 °F /  9.1 °C 44.4 °F /  6.9 °C 29.92in /  1013.1hPa South 2.0mph /  3.2km/h 5.0mph /  8km/h 86% 0.00in /  0mm
Buffalo, New York, USA
Compliments of Weather Underground - 2.5 mb